createdAt,value
2022-11-16T11:43:22.755Z,99.90
2022-11-16T11:45:58.715Z,99.10
2022-11-16T11:48:37.344Z,99.10
2022-11-16T11:51:22.849Z,99.30
2022-11-16T11:53:59.477Z,99.10
2022-11-16T11:56:28.763Z,99.00
2022-11-16T11:58:56.407Z,99.90
2022-11-16T12:01:25.974Z,99.80
2022-11-16T12:04:07.693Z,99.90
2022-11-16T12:06:46.574Z,99.50
2022-11-16T12:09:28.813Z,99.90
2022-11-16T12:12:11.888Z,99.80
2022-11-16T12:14:57.731Z,99.90
2022-11-16T12:17:48.811Z,99.40
2022-11-16T12:20:39.128Z,99.30
2022-11-16T12:23:43.124Z,99.50
2022-11-16T12:26:31.574Z,98.20
2022-11-16T12:29:05.590Z,97.80
2022-11-16T12:31:34.914Z,96.10
2022-11-16T12:34:25.715Z,95.50
2022-11-16T12:37:02.799Z,94.90
2022-11-16T12:39:35.424Z,93.70
2022-11-16T12:42:10.899Z,93.10
2022-11-16T12:45:08.569Z,94.20
2022-11-16T12:48:13.510Z,93.00
2022-11-16T12:51:15.051Z,92.50
2022-11-16T12:54:00.046Z,92.30
2022-11-16T12:56:53.342Z,92.00
2022-11-16T12:59:47.801Z,91.60
2022-11-16T13:02:38.586Z,91.70
2022-11-16T13:05:15.508Z,91.10
2022-11-16T13:07:50.475Z,90.00
2022-11-16T13:10:24.423Z,90.10
2022-11-16T13:13:21.906Z,90.80
2022-11-16T13:15:47.733Z,89.30
2022-11-16T13:18:21.958Z,89.60
2022-11-16T13:20:48.483Z,89.70
2022-11-16T13:23:26.810Z,88.10
2022-11-16T13:26:12.031Z,89.30
2022-11-16T13:28:44.435Z,86.40
2022-11-16T13:31:16.844Z,87.20
2022-11-16T13:33:51.355Z,90.20
2022-11-16T13:36:37.059Z,90.30
2022-11-16T13:39:05.754Z,90.90
2022-11-16T13:41:35.652Z,91.10
2022-11-16T13:44:04.390Z,91.30
2022-11-16T13:46:55.283Z,91.40
2022-11-16T13:49:28.947Z,91.50
2022-11-16T13:52:22.059Z,91.60
2022-11-16T13:54:56.364Z,92.00
2022-11-16T13:57:32.747Z,92.10
2022-11-16T14:00:02.570Z,92.40
2022-11-16T14:02:32.494Z,92.00
2022-11-16T14:05:04.796Z,92.10
2022-11-16T14:07:37.647Z,92.30
2022-11-16T14:10:05.842Z,91.70
2022-11-16T14:12:38.453Z,92.20
2022-11-16T14:15:15.644Z,92.10
2022-11-16T14:17:57.787Z,92.90
2022-11-16T14:20:38.297Z,93.00
2022-11-16T14:23:39.024Z,93.10
2022-11-16T14:26:13.643Z,92.90
2022-11-16T14:29:12.533Z,93.30
2022-11-16T14:32:01.179Z,93.20
2022-11-16T14:34:39.794Z,92.30
2022-11-16T14:37:11.569Z,92.40
2022-11-16T14:39:42.882Z,91.90
2022-11-16T14:43:01.533Z,92.20
2022-11-16T14:45:27.122Z,92.10
2022-11-16T14:48:05.397Z,92.40
2022-11-16T14:50:39.608Z,92.60
2022-11-16T14:53:13.333Z,93.10
2022-11-16T14:55:47.367Z,93.20
2022-11-16T14:58:13.917Z,93.60
2022-11-16T15:00:40.706Z,94.00
2022-11-16T15:03:10.982Z,94.10
2022-11-16T15:05:38.055Z,94.30
2022-11-16T15:08:15.939Z,94.60
2022-11-16T15:10:51.067Z,94.80
2022-11-16T15:13:20.881Z,94.80
2022-11-16T15:15:47.767Z,95.00
2022-11-16T15:18:19.827Z,95.30
2022-11-16T15:20:50.197Z,95.20
2022-11-16T15:23:17.508Z,95.60
2022-11-16T15:25:53.969Z,96.00
2022-11-16T15:28:26.257Z,96.30
2022-11-16T15:30:57.731Z,96.30
2022-11-16T15:33:28.086Z,96.60
2022-11-16T15:35:55.664Z,96.80
2022-11-16T15:38:33.381Z,97.00
2022-11-16T15:41:05.407Z,97.00
2022-11-16T15:43:45.028Z,97.40
2022-11-16T15:46:16.770Z,97.60
2022-11-16T15:48:44.079Z,97.60
2022-11-16T15:51:14.991Z,97.80
2022-11-16T15:53:49.918Z,98.00
2022-11-16T15:56:25.451Z,98.20
2022-11-16T15:58:54.110Z,98.40
2022-11-16T16:01:21.808Z,98.40
2022-11-16T16:04:06.332Z,98.70
2022-11-16T16:06:45.354Z,99.00
2022-11-16T16:09:31.919Z,99.00
2022-11-16T16:12:19.731Z,99.10
2022-11-16T16:14:48.579Z,99.20
2022-11-16T16:17:29.377Z,99.60
2022-11-16T16:20:04.357Z,99.50
2022-11-16T16:22:33.807Z,99.60
2022-11-16T16:25:01.555Z,99.70
2022-11-16T16:27:29.954Z,99.90
2022-11-16T16:29:58.231Z,99.80
2022-11-16T16:32:30.796Z,99.70
2022-11-16T16:34:59.564Z,99.90
2022-11-16T16:37:27.825Z,99.90
2022-11-16T16:39:54.461Z,99.90
2022-11-16T16:42:21.383Z,99.90
2022-11-16T16:44:48.615Z,99.90
2022-11-16T16:47:16.827Z,99.90
2022-11-16T16:49:43.781Z,99.90
2022-11-16T16:52:12.656Z,99.90
2022-11-16T16:54:40.205Z,99.90
2022-11-16T16:57:07.187Z,99.90
2022-11-16T16:59:33.883Z,99.90
2022-11-16T17:02:00.505Z,99.90
2022-11-16T17:04:27.161Z,99.90
2022-11-16T17:06:54.206Z,99.90
2022-11-16T17:09:21.006Z,99.90
2022-11-16T17:11:48.030Z,99.90
2022-11-16T17:14:14.770Z,99.90
2022-11-16T17:16:41.577Z,99.90
2022-11-16T17:19:08.213Z,99.90
2022-11-16T17:21:34.840Z,99.90
2022-11-16T17:24:01.433Z,99.90
2022-11-16T17:26:29.536Z,99.90
2022-11-16T17:28:57.460Z,99.90
2022-11-16T17:31:25.653Z,99.90
2022-11-16T17:33:53.028Z,99.90
2022-11-16T17:36:20.394Z,99.90
2022-11-16T17:38:47.036Z,99.90
2022-11-16T17:41:15.661Z,99.90
2022-11-16T17:43:43.684Z,99.90
2022-11-16T17:46:16.091Z,99.90
2022-11-16T17:48:44.608Z,99.90
2022-11-16T17:51:12.768Z,99.90
2022-11-16T17:53:40.680Z,99.90
2022-11-16T17:56:07.953Z,99.90
2022-11-16T17:58:34.746Z,99.90
2022-11-16T18:01:01.461Z,99.90
2022-11-16T18:03:31.046Z,99.90
2022-11-16T18:06:02.896Z,99.90
2022-11-16T18:08:30.246Z,99.90
2022-11-16T18:10:56.849Z,99.90
2022-11-16T18:13:23.650Z,99.90
2022-11-16T18:15:50.247Z,99.90
2022-11-16T18:18:16.882Z,99.90
2022-11-16T18:20:43.472Z,99.90
2022-11-16T18:23:10.095Z,99.90
2022-11-16T18:25:36.933Z,99.90
2022-11-16T18:28:03.577Z,99.90
2022-11-16T18:30:30.302Z,99.90
2022-11-16T18:32:56.866Z,99.90
2022-11-16T18:35:23.467Z,99.90
2022-11-16T18:37:50.094Z,99.90
2022-11-16T18:40:17.251Z,99.90
2022-11-16T18:42:43.859Z,99.90
2022-11-16T18:45:11.574Z,99.90
2022-11-16T18:47:38.262Z,99.90
2022-11-16T18:50:14.564Z,99.90
2022-11-16T18:52:45.746Z,99.90
2022-11-16T18:55:12.347Z,99.90
2022-11-16T18:57:39.041Z,99.90
2022-11-16T19:00:06.195Z,99.90
2022-11-16T19:02:32.779Z,99.90
2022-11-16T19:04:59.405Z,99.90
2022-11-16T19:07:26.205Z,99.90
2022-11-16T19:09:52.911Z,99.90
2022-11-16T19:12:19.573Z,99.90
2022-11-16T19:14:46.198Z,99.90
2022-11-16T19:17:12.867Z,99.90
2022-11-16T19:19:39.518Z,99.90
2022-11-16T19:22:06.155Z,99.90
2022-11-16T19:24:32.767Z,99.90
2022-11-16T19:26:59.340Z,99.90
2022-11-16T19:29:28.055Z,99.90
2022-11-16T19:31:54.631Z,99.90
2022-11-16T19:34:21.243Z,99.90
2022-11-16T19:36:47.903Z,99.90
2022-11-16T19:39:14.522Z,99.90
2022-11-16T19:41:41.274Z,99.90
2022-11-16T19:44:08.021Z,99.90
2022-11-16T19:46:37.944Z,99.90
2022-11-16T19:49:05.390Z,99.90
2022-11-16T19:51:33.938Z,99.90
2022-11-16T19:54:02.306Z,99.90
2022-11-16T19:56:29.265Z,99.90
2022-11-16T19:58:56.256Z,99.90
2022-11-16T20:01:27.432Z,99.90
2022-11-16T20:03:56.143Z,99.90
2022-11-16T20:06:26.443Z,99.90
2022-11-16T20:08:55.860Z,99.90
2022-11-16T20:11:24.924Z,99.90
2022-11-16T20:13:53.749Z,99.90
2022-11-16T20:16:23.411Z,99.90
2022-11-16T20:18:51.006Z,99.90
2022-11-16T20:21:29.065Z,99.90
2022-11-16T20:24:01.545Z,99.90
2022-11-16T20:26:33.492Z,99.90
2022-11-16T20:29:00.166Z,99.90
2022-11-16T20:31:29.245Z,99.90
2022-11-16T20:33:58.152Z,99.90
2022-11-16T20:36:27.752Z,99.90
2022-11-16T20:38:54.759Z,99.90
2022-11-16T20:41:26.108Z,99.90
2022-11-16T20:43:57.962Z,99.90
2022-11-16T20:46:26.725Z,99.90
2022-11-16T20:48:54.524Z,99.90
2022-11-16T20:51:21.187Z,99.90
2022-11-16T20:53:48.848Z,99.90
2022-11-16T20:56:17.678Z,99.90
2022-11-16T20:58:44.274Z,99.90
2022-11-16T21:01:13.844Z,99.90
2022-11-16T21:03:40.885Z,99.90
2022-11-16T21:06:08.783Z,99.90
2022-11-16T21:08:36.846Z,99.90
2022-11-16T21:11:14.202Z,99.90
2022-11-16T21:13:59.243Z,99.90
2022-11-16T21:16:26.079Z,99.90
2022-11-16T21:18:54.894Z,99.90
2022-11-16T21:21:21.545Z,99.90
2022-11-16T21:23:51.910Z,99.90
2022-11-16T21:26:20.735Z,99.90
2022-11-16T21:28:47.652Z,99.90
2022-11-16T21:31:22.800Z,99.90
2022-11-16T21:33:49.379Z,99.90
2022-11-16T21:36:21.080Z,99.90
2022-11-16T21:38:47.822Z,99.90
2022-11-16T21:41:16.144Z,99.90
2022-11-16T21:43:44.012Z,99.90
2022-11-16T21:46:13.555Z,99.90
2022-11-16T21:48:40.656Z,99.90
2022-11-16T21:51:12.409Z,99.90
2022-11-16T21:53:39.984Z,99.90
2022-11-16T21:56:10.295Z,99.90
2022-11-16T21:58:38.747Z,99.90
2022-11-16T22:01:05.625Z,99.90
2022-11-16T22:03:32.989Z,99.90
2022-11-16T22:06:20.174Z,99.90
2022-11-16T22:08:47.656Z,99.90
2022-11-16T22:11:15.136Z,99.90
2022-11-16T22:13:42.572Z,99.90
2022-11-16T22:16:15.173Z,99.90
2022-11-16T22:18:42.216Z,99.90
2022-11-16T22:21:09.594Z,99.90
2022-11-16T22:23:36.735Z,99.90
2022-11-16T22:26:14.503Z,99.90
2022-11-16T22:28:41.197Z,99.90
2022-11-16T22:31:13.733Z,99.90
2022-11-16T22:33:40.914Z,99.90
2022-11-16T22:36:09.658Z,99.90
2022-11-16T22:38:36.820Z,99.90
